VIAG/AGR METAR and TAF weather

Enter ICAO airport designator
Station Type Date Time Source
VIAG METAR 2019/08/19 12:30 UTC NOAA

VIAG 191230Z 33004KT 6000 FEW025 FEW030TCU BKN250 32/29 Q1


Station Type Date Time Source
VIAG Decoded METAR 2019/08/19 12:30 UTC NOAA

Station name not available
Aug 19, 2019 - 08:30 AM EDT / 2019.08.19 1230 UTC
Wind: from the NNW (330 degrees) at 5 MPH (4 KT):0
Visibility: 3 mile(s):0
Sky conditions: mostly cloudy
Weather: Towering cumulus clouds observed
Temperature: 89 F (32 C)
Heat index: 112.6 F (44.8 C):1
Dew Point: 84 F (29 C)
Relative Humidity: 84%
Pressure (altimeter): 29.62 in. Hg (1003 hPa)
ob: VIAG 191230Z 33004KT 6000 FEW025 FEW030TCU BKN250 32/29 Q1003 NOSIG
cycle: 12

Station Type Date Time Source
VIAG TAF 2019/08/19 06:30 UTC NOAA

TAF VIAG 190330Z 1906/1918 27005KT 6000 SCT015 SCT025 BKN250
TEMPO 1912/1914 6000 RA SCT010 SCT020 BKN090

Example: see airport list